Time;durP1;ratioP1;P1;durP2;ratioP2;P2;SDS_P1;SDS_P2;PMS_P1;PMS_P2;Temp;Humidity;BMP_temperature;BMP_pressure;BME280_temperature;BME280_humidity;BME280_pressure;Samples;Min_cycle;Max_cycle;Signal;HPM_P1;HPM_P2
2022/03/07 00:00:29;;;;;;;11.52;6.32;;;;;;;;;;5032220;28;20041;-75
2022/03/07 00:02:59;;;;;;;9.88;5.68;;;;;;;;;;5033476;28;20053;-73
2022/03/07 00:05:28;;;;;;;12.50;7.05;;;;;;;;;;5031129;28;20057;-73
2022/03/07 00:07:58;;;;;;;13.10;6.43;;;;;;;;;;5033726;28;20056;-74
2022/03/07 00:10:46;;;;;;;12.73;7.20;;;;;;;;;;5035361;28;20138;-71
2022/03/07 00:13:13;;;;;;;10.75;6.63;;;;;;;;;;5034397;28;20084;-72
2022/03/07 00:15:41;;;;;;;12.15;6.25;;;;;;;;;;5033945;28;20085;-72
2022/03/07 00:18:10;;;;;;;11.75;6.25;;;;;;;;;;5037836;28;20068;-71
2022/03/07 00:20:38;;;;;;;12.77;6.50;;;;;;;;;;5031819;28;20206;-71
2022/03/07 00:23:05;;;;;;;12.77;6.63;;;;;;;;;;5033917;28;20053;-74
2022/03/07 00:25:33;;;;;;;10.77;6.05;;;;;;;;;;5030514;28;20112;-71
2022/03/07 00:28:03;;;;;;;13.45;6.88;;;;;;;;;;5034507;28;20053;-72
2022/03/07 00:30:31;;;;;;;13.27;7.50;;;;;;;;;;5032804;28;20480;-72
2022/03/07 00:32:59;;;;;;;11.93;6.85;;;;;;;;;;5034068;28;20450;-72
2022/03/07 00:35:28;;;;;;;10.57;6.05;;;;;;;;;;5033130;28;20049;-73
2022/03/07 00:37:58;;;;;;;13.15;7.25;;;;;;;;;;5032129;28;20134;-72
2022/03/07 00:40:26;;;;;;;12.27;7.00;;;;;;;;;;5031876;28;20044;-71
2022/03/07 00:42:54;;;;;;;14.18;7.45;;;;;;;;;;5029452;28;20817;-72
2022/03/07 00:45:22;;;;;;;12.93;6.60;;;;;;;;;;5030152;28;20115;-72
2022/03/07 00:47:49;;;;;;;11.15;6.05;;;;;;;;;;5033240;28;20307;-71
2022/03/07 00:50:17;;;;;;;13.60;6.97;;;;;;;;;;5034132;28;20437;-72
2022/03/07 00:52:46;;;;;;;11.70;6.43;;;;;;;;;;5026993;28;20262;-72
2022/03/07 00:55:14;;;;;;;13.68;6.88;;;;;;;;;;5031108;28;20136;-72
2022/03/07 00:57:42;;;;;;;12.52;6.10;;;;;;;;;;5033212;28;20071;-72
2022/03/07 01:00:13;;;;;;;13.90;7.65;;;;;;;;;;5035327;28;20049;-71
2022/03/07 01:02:41;;;;;;;14.60;7.25;;;;;;;;;;5035864;28;20076;-72
2022/03/07 01:05:09;;;;;;;12.00;6.95;;;;;;;;;;5035282;28;20080;-71
2022/03/07 01:07:38;;;;;;;15.35;6.97;;;;;;;;;;5032396;28;20152;-71
2022/03/07 01:10:08;;;;;;;11.18;6.15;;;;;;;;;;5038223;28;20057;-71
2022/03/07 01:12:36;;;;;;;11.95;6.68;;;;;;;;;;5034422;28;20064;-72
2022/03/07 01:15:04;;;;;;;12.93;7.57;;;;;;;;;;5035660;28;20063;-72
2022/03/07 01:17:31;;;;;;;13.35;6.72;;;;;;;;;;5036034;28;20118;-72
2022/03/07 01:20:00;;;;;;;14.45;7.03;;;;;;;;;;5034509;28;20048;-73
2022/03/07 01:22:28;;;;;;;13.73;6.88;;;;;;;;;;5037322;28;20057;-72
2022/03/07 01:24:56;;;;;;;13.32;7.07;;;;;;;;;;5033155;28;20079;-71
2022/03/07 01:27:26;;;;;;;13.48;7.30;;;;;;;;;;5035068;28;20049;-73
2022/03/07 01:29:55;;;;;;;16.83;7.88;;;;;;;;;;5036317;28;20734;-72
2022/03/07 01:32:22;;;;;;;14.50;8.20;;;;;;;;;;5035339;28;20152;-72
2022/03/07 01:34:50;;;;;;;14.25;7.78;;;;;;;;;;5034886;28;20438;-72
2022/03/07 01:37:18;;;;;;;13.88;7.57;;;;;;;;;;5034092;28;20525;-72
2022/03/07 01:39:46;;;;;;;12.55;6.80;;;;;;;;;;5031626;28;20166;-73
2022/03/07 01:42:14;;;;;;;13.52;7.43;;;;;;;;;;5035027;28;20103;-72
2022/03/07 01:44:42;;;;;;;15.75;7.80;;;;;;;;;;5034672;28;20064;-73
2022/03/07 01:47:10;;;;;;;14.43;7.38;;;;;;;;;;5033513;28;20057;-72
2022/03/07 01:49:42;;;;;;;13.55;7.60;;;;;;;;;;5031937;28;20045;-73
2022/03/07 01:52:10;;;;;;;13.18;7.60;;;;;;;;;;5032076;28;20064;-73
2022/03/07 01:54:38;;;;;;;14.65;7.63;;;;;;;;;;5034478;28;20234;-73
2022/03/07 01:57:06;;;;;;;15.82;8.13;;;;;;;;;;5035986;28;20072;-73
2022/03/07 01:59:36;;;;;;;15.38;8.10;;;;;;;;;;5036070;28;20048;-73
2022/03/07 02:02:05;;;;;;;13.80;7.18;;;;;;;;;;5032336;28;20140;-73
2022/03/07 02:04:33;;;;;;;14.45;7.35;;;;;;;;;;5034804;28;20056;-73
2022/03/07 02:07:01;;;;;;;17.55;7.60;;;;;;;;;;5035867;28;20060;-73
2022/03/07 02:09:32;;;;;;;13.90;7.80;;;;;;;;;;5036455;28;20052;-73
2022/03/07 02:12:00;;;;;;;15.48;8.43;;;;;;;;;;5036345;28;20144;-72
2022/03/07 02:14:28;;;;;;;14.93;7.68;;;;;;;;;;5037945;28;20048;-72
2022/03/07 02:16:55;;;;;;;14.57;7.90;;;;;;;;;;5035234;28;20076;-72
2022/03/07 02:19:25;;;;;;;18.23;8.63;;;;;;;;;;5031993;28;20068;-72
2022/03/07 02:21:57;;;;;;;14.63;7.03;;;;;;;;;;5030470;28;20092;-73
2022/03/07 02:24:25;;;;;;;18.73;8.23;;;;;;;;;;5035015;28;20084;-73
2022/03/07 02:26:56;;;;;;;14.85;7.90;;;;;;;;;;5033488;28;20049;-72
2022/03/07 02:29:24;;;;;;;15.93;8.02;;;;;;;;;;5036302;28;20076;-73
2022/03/07 02:31:52;;;;;;;15.05;8.68;;;;;;;;;;5033728;28;20057;-72
2022/03/07 02:34:20;;;;;;;16.92;9.00;;;;;;;;;;5032459;28;20130;-72
2022/03/07 02:36:47;;;;;;;15.20;8.32;;;;;;;;;;5031340;28;20057;-72
2022/03/07 02:39:16;;;;;;;14.85;7.60;;;;;;;;;;5031457;28;20346;-72
2022/03/07 02:41:44;;;;;;;18.60;9.38;;;;;;;;;;5031481;28;20153;-72
2022/03/07 02:44:12;;;;;;;13.57;7.45;;;;;;;;;;5029067;28;20067;-71
2022/03/07 02:46:42;;;;;;;17.08;7.53;;;;;;;;;;5033769;28;20127;-72
2022/03/07 02:49:10;;;;;;;12.82;7.95;;;;;;;;;;5031286;28;20084;-72
2022/03/07 02:51:44;;;;;;;18.08;8.30;;;;;;;;;;5034347;28;20588;-72
2022/03/07 02:54:11;;;;;;;14.02;7.72;;;;;;;;;;5028980;28;20763;-72
2022/03/07 02:56:40;;;;;;;18.40;9.45;;;;;;;;;;5034151;28;20051;-74
2022/03/07 02:59:08;;;;;;;17.90;8.88;;;;;;;;;;5027875;28;20076;-72
2022/03/07 03:01:35;;;;;;;17.67;8.80;;;;;;;;;;5033794;28;20524;-72
2022/03/07 03:04:03;;;;;;;17.65;8.40;;;;;;;;;;5033621;28;20187;-72
2022/03/07 03:06:31;;;;;;;15.88;8.10;;;;;;;;;;5034464;28;20140;-72
2022/03/07 03:08:59;;;;;;;16.75;8.63;;;;;;;;;;5031268;28;20084;-72
2022/03/07 03:11:28;;;;;;;15.70;8.23;;;;;;;;;;5032676;28;20045;-72
2022/03/07 03:13:57;;;;;;;15.65;9.38;;;;;;;;;;5034723;28;20073;-72
2022/03/07 03:16:25;;;;;;;16.67;8.95;;;;;;;;;;5033331;28;20091;-72
2022/03/07 03:18:53;;;;;;;18.42;9.02;;;;;;;;;;5029383;28;20161;-71
2022/03/07 03:21:21;;;;;;;18.85;8.90;;;;;;;;;;5032350;28;20053;-73
2022/03/07 03:23:49;;;;;;;18.77;8.85;;;;;;;;;;5031322;28;20053;-72
2022/03/07 03:26:16;;;;;;;16.88;9.50;;;;;;;;;;5030514;28;20045;-72
2022/03/07 03:28:44;;;;;;;18.13;8.27;;;;;;;;;;5031794;28;20071;-72
2022/03/07 03:31:13;;;;;;;18.08;8.00;;;;;;;;;;5033191;28;20088;-72
2022/03/07 03:33:42;;;;;;;14.30;8.10;;;;;;;;;;5032142;28;20063;-72
2022/03/07 03:36:09;;;;;;;16.23;9.20;;;;;;;;;;5032564;28;20051;-72
2022/03/07 03:38:39;;;;;;;15.25;8.93;;;;;;;;;;5033489;28;20076;-72
2022/03/07 03:41:06;;;;;;;17.35;9.02;;;;;;;;;;5029567;28;20051;-73
2022/03/07 03:43:34;;;;;;;16.33;8.35;;;;;;;;;;5032606;28;20473;-73
2022/03/07 03:46:02;;;;;;;14.75;8.32;;;;;;;;;;5030255;28;20056;-73
2022/03/07 03:48:36;;;;;;;13.73;8.07;;;;;;;;;;5032629;28;20532;-73
2022/03/07 03:51:04;;;;;;;15.90;9.18;;;;;;;;;;5032497;28;20049;-73
2022/03/07 03:53:33;;;;;;;15.10;8.52;;;;;;;;;;5031404;28;20065;-73
2022/03/07 03:56:03;;;;;;;15.00;7.80;;;;;;;;;;5035684;28;20136;-72
2022/03/07 03:58:31;;;;;;;16.10;7.88;;;;;;;;;;5031606;28;20136;-73
2022/03/07 04:00:59;;;;;;;15.48;8.85;;;;;;;;;;5031792;28;20056;-73
2022/03/07 04:03:27;;;;;;;13.43;8.10;;;;;;;;;;5031577;28;20160;-73
2022/03/07 04:05:56;;;;;;;17.33;8.38;;;;;;;;;;5033143;28;20052;-73
2022/03/07 04:08:28;;;;;;;16.42;8.60;;;;;;;;;;5030417;28;20477;-73
2022/03/07 04:10:55;;;;;;;15.63;8.25;;;;;;;;;;5031184;28;20059;-73
2022/03/07 04:13:23;;;;;;;15.43;8.57;;;;;;;;;;5030174;28;20520;-73
2022/03/07 04:15:51;;;;;;;15.77;8.57;;;;;;;;;;5033595;28;21866;-72
2022/03/07 04:18:19;;;;;;;18.50;8.55;;;;;;;;;;5033259;28;20132;-73
2022/03/07 04:20:47;;;;;;;19.35;8.93;;;;;;;;;;5033793;28;20053;-72
2022/03/07 04:23:20;;;;;;;15.25;8.48;;;;;;;;;;5035418;28;20047;-73
2022/03/07 04:25:48;;;;;;;16.38;8.45;;;;;;;;;;5031814;28;20168;-72
2022/03/07 04:28:17;;;;;;;15.07;8.60;;;;;;;;;;5032831;28;20060;-74
2022/03/07 04:30:44;;;;;;;16.20;8.63;;;;;;;;;;5033938;28;20044;-74
2022/03/07 04:33:12;;;;;;;15.45;8.18;;;;;;;;;;5030094;28;20304;-74
2022/03/07 04:35:40;;;;;;;19.08;9.40;;;;;;;;;;5032036;28;20053;-75
2022/03/07 04:38:07;;;;;;;17.60;8.75;;;;;;;;;;5037299;28;20064;-73
2022/03/07 04:41:01;;;;;;;19.25;8.00;;;;;;;;;;5035372;28;20220;-73
2022/03/07 04:43:32;;;;;;;17.20;8.68;;;;;;;;;;5037167;28;20319;-75
2022/03/07 04:46:00;;;;;;;15.15;8.30;;;;;;;;;;5035230;28;20049;-72
2022/03/07 04:48:29;;;;;;;17.77;9.77;;;;;;;;;;5034757;28;20045;-72
2022/03/07 04:50:57;;;;;;;16.73;9.70;;;;;;;;;;5035844;28;20048;-72
2022/03/07 04:53:25;;;;;;;15.85;8.07;;;;;;;;;;5032689;28;20049;-73
2022/03/07 04:55:52;;;;;;;17.63;8.70;;;;;;;;;;5034957;28;20057;-73
2022/03/07 04:58:21;;;;;;;22.25;9.48;;;;;;;;;;5035944;28;20502;-73
2022/03/07 05:00:49;;;;;;;15.77;9.18;;;;;;;;;;5035304;28;20069;-72
2022/03/07 05:03:17;;;;;;;17.42;9.27;;;;;;;;;;5035752;28;20125;-73
2022/03/07 05:05:45;;;;;;;16.42;8.82;;;;;;;;;;5035778;28;20108;-73
2022/03/07 05:08:12;;;;;;;18.63;8.32;;;;;;;;;;5032434;28;20057;-73
2022/03/07 05:10:40;;;;;;;16.88;9.10;;;;;;;;;;5036640;28;20049;-73
2022/03/07 05:13:08;;;;;;;17.27;9.07;;;;;;;;;;5036590;28;20048;-72
2022/03/07 05:15:37;;;;;;;17.88;8.38;;;;;;;;;;5033412;28;20052;-73
2022/03/07 05:18:05;;;;;;;17.25;7.68;;;;;;;;;;5036587;28;20053;-72
2022/03/07 05:20:33;;;;;;;19.08;8.88;;;;;;;;;;5034834;28;20091;-72
2022/03/07 05:23:20;;;;;;;19.20;8.32;;;;;;;;;;5036851;28;20519;-73
2022/03/07 05:25:48;;;;;;;17.58;8.82;;;;;;;;;;5034891;28;20076;-72
2022/03/07 05:28:16;;;;;;;20.58;8.93;;;;;;;;;;5037397;28;20502;-72
2022/03/07 05:30:45;;;;;;;18.67;9.35;;;;;;;;;;5035502;28;20063;-74
2022/03/07 05:33:13;;;;;;;17.52;9.30;;;;;;;;;;5035221;28;20067;-72
2022/03/07 05:35:41;;;;;;;18.20;9.25;;;;;;;;;;5035119;28;20159;-73
2022/03/07 05:38:09;;;;;;;17.67;9.43;;;;;;;;;;5036860;28;20088;-72
2022/03/07 05:40:36;;;;;;;15.90;8.55;;;;;;;;;;5035940;28;20049;-73
2022/03/07 05:43:04;;;;;;;20.25;9.55;;;;;;;;;;5033644;28;20243;-72
2022/03/07 05:45:57;;;;;;;17.90;8.50;;;;;;;;;;5034131;28;20060;-73
2022/03/07 05:48:25;;;;;;;20.23;9.18;;;;;;;;;;5033005;28;20057;-72
2022/03/07 05:50:52;;;;;;;17.98;9.38;;;;;;;;;;5035523;28;20053;-73
2022/03/07 05:53:23;;;;;;;20.95;9.82;;;;;;;;;;5029739;28;20053;-73
2022/03/07 05:55:51;;;;;;;15.48;8.48;;;;;;;;;;5037430;28;20045;-73
2022/03/07 05:58:19;;;;;;;19.25;9.98;;;;;;;;;;5033183;28;20041;-72
2022/03/07 06:00:46;;;;;;;17.70;9.80;;;;;;;;;;5034144;28;20321;-72
2022/03/07 06:03:15;;;;;;;20.48;10.00;;;;;;;;;;5031936;28;20050;-73
2022/03/07 06:05:43;;;;;;;20.95;9.90;;;;;;;;;;5031752;28;20049;-73
2022/03/07 06:08:17;;;;;;;20.77;9.98;;;;;;;;;;5033282;28;20099;-75
2022/03/07 06:10:45;;;;;;;19.17;9.98;;;;;;;;;;5033947;28;20076;-73
2022/03/07 06:13:13;;;;;;;18.77;9.07;;;;;;;;;;5036319;28;20072;-73
2022/03/07 06:15:43;;;;;;;24.70;10.38;;;;;;;;;;5032693;28;20061;-73
2022/03/07 06:18:12;;;;;;;19.58;9.65;;;;;;;;;;5032836;28;20048;-73
2022/03/07 06:20:40;;;;;;;21.15;9.52;;;;;;;;;;5031237;28;20045;-72
2022/03/07 06:23:09;;;;;;;20.27;10.07;;;;;;;;;;5033642;28;20041;-73
2022/03/07 06:25:36;;;;;;;19.73;10.73;;;;;;;;;;5031573;28;20116;-73
2022/03/07 06:28:05;;;;;;;20.65;9.98;;;;;;;;;;5038784;28;20317;-73
2022/03/07 06:30:33;;;;;;;21.83;9.68;;;;;;;;;;5032688;28;20696;-73
2022/03/07 06:33:01;;;;;;;20.00;9.55;;;;;;;;;;5031035;28;20677;-73
2022/03/07 06:35:29;;;;;;;23.13;9.63;;;;;;;;;;5035399;28;20080;-73
2022/03/07 06:37:58;;;;;;;21.65;10.77;;;;;;;;;;5033581;28;20053;-74
2022/03/07 06:40:27;;;;;;;20.77;9.55;;;;;;;;;;5031543;28;20068;-73
2022/03/07 06:42:55;;;;;;;22.67;9.77;;;;;;;;;;5031516;28;20485;-73
2022/03/07 06:45:23;;;;;;;17.42;9.75;;;;;;;;;;5033102;28;20053;-73
2022/03/07 06:47:50;;;;;;;20.67;10.40;;;;;;;;;;5029635;28;20049;-73
2022/03/07 06:50:18;;;;;;;19.17;9.50;;;;;;;;;;5033949;28;20132;-73
2022/03/07 06:52:47;;;;;;;26.35;10.95;;;;;;;;;;5030012;28;20510;-73
2022/03/07 06:55:16;;;;;;;21.27;11.25;;;;;;;;;;5036335;28;20049;-73
2022/03/07 06:57:46;;;;;;;20.33;10.38;;;;;;;;;;5032076;28;20904;-73
2022/03/07 07:00:15;;;;;;;22.17;10.20;;;;;;;;;;5031338;28;20127;-74
2022/03/07 07:03:06;;;;;;;21.60;11.30;;;;;;;;;;5034266;28;20052;-74
2022/03/07 07:05:34;;;;;;;19.17;9.43;;;;;;;;;;5034681;28;20611;-73
2022/03/07 07:08:02;;;;;;;21.58;10.73;;;;;;;;;;5033090;28;20080;-74
2022/03/07 07:10:31;;;;;;;23.25;11.85;;;;;;;;;;5029399;28;20045;-73
2022/03/07 07:12:58;;;;;;;25.05;11.63;;;;;;;;;;5035032;28;20136;-74
2022/03/07 07:15:26;;;;;;;23.67;11.55;;;;;;;;;;5029982;28;20589;-73
2022/03/07 07:17:54;;;;;;;22.88;10.98;;;;;;;;;;5033055;28;20045;-73
2022/03/07 07:20:22;;;;;;;23.33;9.82;;;;;;;;;;5031519;28;20079;-73
2022/03/07 07:22:49;;;;;;;25.27;10.52;;;;;;;;;;5034004;28;20045;-73
2022/03/07 07:25:21;;;;;;;26.50;12.82;;;;;;;;;;5028760;28;20433;-73
2022/03/07 07:27:50;;;;;;;20.70;10.70;;;;;;;;;;5028155;28;20218;-73
2022/03/07 07:30:22;;;;;;;22.67;12.07;;;;;;;;;;5033102;28;20049;-73
2022/03/07 07:33:13;;;;;;;26.50;11.75;;;;;;;;;;5031170;28;20506;-73
2022/03/07 07:35:41;;;;;;;24.23;12.07;;;;;;;;;;5030225;28;20053;-72
2022/03/07 07:38:09;;;;;;;29.27;11.63;;;;;;;;;;5028915;28;20054;-73
2022/03/07 07:41:01;;;;;;;22.40;11.50;;;;;;;;;;5025904;28;20139;-74
2022/03/07 07:43:30;;;;;;;23.73;12.10;;;;;;;;;;5025506;28;20057;-73
2022/03/07 07:45:57;;;;;;;25.17;12.35;;;;;;;;;;5028658;28;20061;-73
2022/03/07 07:48:26;;;;;;;30.13;13.57;;;;;;;;;;5034775;28;20353;-73
2022/03/07 07:50:53;;;;;;;29.25;13.82;;;;;;;;;;5030404;28;20144;-73
2022/03/07 07:53:21;;;;;;;28.10;12.57;;;;;;;;;;5029619;28;20065;-73
2022/03/07 07:55:49;;;;;;;22.33;11.68;;;;;;;;;;5033757;28;20057;-73
2022/03/07 07:58:17;;;;;;;29.10;12.73;;;;;;;;;;5031362;28;20085;-73
2022/03/07 08:00:47;;;;;;;24.58;12.73;;;;;;;;;;5030641;28;20051;-74
2022/03/07 08:03:15;;;;;;;23.83;14.23;;;;;;;;;;5029591;28;20253;-73
2022/03/07 08:05:45;;;;;;;24.73;11.35;;;;;;;;;;5025375;28;20048;-73
2022/03/07 08:08:13;;;;;;;25.75;12.82;;;;;;;;;;5028846;28;20049;-73
2022/03/07 08:10:40;;;;;;;28.02;12.63;;;;;;;;;;5035611;28;20051;-73
2022/03/07 08:13:08;;;;;;;29.45;12.75;;;;;;;;;;5030228;28;20076;-73
2022/03/07 08:15:35;;;;;;;25.67;12.88;;;;;;;;;;5034877;28;20056;-73
2022/03/07 08:18:05;;;;;;;18.98;11.15;;;;;;;;;;5031072;28;20075;-73
2022/03/07 08:20:33;;;;;;;22.85;11.80;;;;;;;;;;5032038;28;20141;-74
2022/03/07 08:23:01;;;;;;;27.23;12.50;;;;;;;;;;5033959;28;20052;-73
2022/03/07 08:25:28;;;;;;;24.38;11.25;;;;;;;;;;5032917;28;20040;-74
2022/03/07 08:27:56;;;;;;;25.48;11.50;;;;;;;;;;5034163;28;20327;-73
2022/03/07 08:30:25;;;;;;;24.25;13.50;;;;;;;;;;5031420;28;20552;-73
2022/03/07 08:32:53;;;;;;;26.35;12.02;;;;;;;;;;5032843;28;20076;-73
2022/03/07 08:35:22;;;;;;;31.65;12.23;;;;;;;;;;5035143;28;20128;-74
2022/03/07 08:37:50;;;;;;;25.63;12.52;;;;;;;;;;5037873;28;20076;-73
2022/03/07 08:40:19;;;;;;;23.08;12.45;;;;;;;;;;5033143;28;20246;-74
2022/03/07 08:42:47;;;;;;;24.40;12.23;;;;;;;;;;5029880;28;20045;-73
2022/03/07 08:45:20;;;;;;;21.17;11.32;;;;;;;;;;5034169;28;20057;-73
2022/03/07 08:47:53;;;;;;;21.90;11.48;;;;;;;;;;5032373;28;20080;-75
2022/03/07 08:50:23;;;;;;;19.65;11.35;;;;;;;;;;5023844;28;20057;-73
2022/03/07 08:52:50;;;;;;;22.70;11.25;;;;;;;;;;5021926;28;20057;-74
2022/03/07 08:55:20;;;;;;;20.45;9.45;;;;;;;;;;5030881;28;20088;-76
2022/03/07 08:57:48;;;;;;;21.05;11.07;;;;;;;;;;5032560;28;20085;-74
2022/03/07 09:00:16;;;;;;;23.73;11.05;;;;;;;;;;5030500;28;20053;-72
2022/03/07 09:02:46;;;;;;;19.70;9.60;;;;;;;;;;5031444;28;20125;-73
2022/03/07 09:05:15;;;;;;;18.38;9.90;;;;;;;;;;5032110;28;20057;-71
2022/03/07 09:07:44;;;;;;;19.15;10.82;;;;;;;;;;5026902;28;20057;-71
2022/03/07 09:10:12;;;;;;;20.63;10.32;;;;;;;;;;5034038;28;20072;-71
2022/03/07 09:12:40;;;;;;;20.02;11.23;;;;;;;;;;5033069;28;20139;-72
2022/03/07 09:15:08;;;;;;;15.18;8.30;;;;;;;;;;5030483;28;20598;-72
2022/03/07 09:17:36;;;;;;;16.30;8.77;;;;;;;;;;5029896;28;20515;-71
2022/03/07 09:20:05;;;;;;;17.73;8.95;;;;;;;;;;5028386;28;20146;-71
2022/03/07 09:22:33;;;;;;;15.20;8.75;;;;;;;;;;5030303;28;20057;-71
2022/03/07 09:25:02;;;;;;;16.58;7.85;;;;;;;;;;5031301;28;20041;-71
2022/03/07 09:27:29;;;;;;;17.73;9.00;;;;;;;;;;5032636;28;20607;-72
2022/03/07 09:30:00;;;;;;;17.95;8.82;;;;;;;;;;5031849;28;20545;-71
2022/03/07 09:32:28;;;;;;;14.70;8.48;;;;;;;;;;5031770;28;20052;-71
2022/03/07 09:34:55;;;;;;;11.73;6.88;;;;;;;;;;5034086;28;20481;-71
2022/03/07 09:37:23;;;;;;;15.98;8.07;;;;;;;;;;5032910;28;20053;-71
2022/03/07 09:39:51;;;;;;;14.13;8.52;;;;;;;;;;5033736;28;20092;-71
2022/03/07 09:42:21;;;;;;;15.13;8.18;;;;;;;;;;5033193;28;20049;-73
2022/03/07 09:44:51;;;;;;;16.27;8.27;;;;;;;;;;5033107;28;20044;-72
2022/03/07 09:47:20;;;;;;;13.15;8.30;;;;;;;;;;5034595;28;20119;-72
2022/03/07 09:49:49;;;;;;;15.30;8.30;;;;;;;;;;5034935;28;20045;-72
2022/03/07 09:52:17;;;;;;;15.20;7.13;;;;;;;;;;5033545;28;20055;-71
2022/03/07 09:55:13;;;;;;;14.68;7.95;;;;;;;;;;5034100;28;20052;-72
2022/03/07 09:57:42;;;;;;;14.98;8.00;;;;;;;;;;5033398;28;20410;-72
2022/03/07 10:00:34;;;;;;;15.00;7.28;;;;;;;;;;5032621;28;20670;-75
2022/03/07 10:03:05;;;;;;;15.23;8.20;;;;;;;;;;5037192;28;20512;-74
2022/03/07 10:05:34;;;;;;;14.20;7.70;;;;;;;;;;5031848;28;20048;-73
2022/03/07 10:08:03;;;;;;;9.98;6.50;;;;;;;;;;5035103;28;20139;-74
2022/03/07 10:10:31;;;;;;;14.73;7.65;;;;;;;;;;5034196;28;20045;-76
2022/03/07 10:13:25;;;;;;;18.45;8.88;;;;;;;;;;5034983;28;20122;-75
2022/03/07 10:15:57;;;;;;;12.55;7.85;;;;;;;;;;5032707;28;20052;-74
2022/03/07 10:18:26;;;;;;;13.55;7.57;;;;;;;;;;5032524;28;20053;-74
2022/03/07 10:20:54;;;;;;;13.77;8.15;;;;;;;;;;5032837;28;20057;-74
2022/03/07 10:23:25;;;;;;;13.55;8.25;;;;;;;;;;5032730;28;20439;-74
2022/03/07 10:25:52;;;;;;;13.43;7.88;;;;;;;;;;5029362;28;20175;-74
2022/03/07 10:28:21;;;;;;;19.27;7.72;;;;;;;;;;5031671;28;20048;-74
2022/03/07 10:30:50;;;;;;;14.05;7.90;;;;;;;;;;5032646;28;20130;-73
2022/03/07 10:33:26;;;;;;;12.38;7.88;;;;;;;;;;5028366;28;20062;-74
2022/03/07 10:35:55;;;;;;;15.50;8.02;;;;;;;;;;5029738;28;20045;-74
2022/03/07 10:38:23;;;;;;;13.93;7.82;;;;;;;;;;5033462;28;20053;-73
2022/03/07 10:40:54;;;;;;;12.02;7.65;;;;;;;;;;5033868;28;20047;-72
2022/03/07 10:43:23;;;;;;;13.32;7.50;;;;;;;;;;5030650;28;20141;-73
2022/03/07 10:45:53;;;;;;;15.32;8.35;;;;;;;;;;5031553;28;20061;-74
2022/03/07 10:48:23;;;;;;;16.73;7.75;;;;;;;;;;5033048;28;20091;-74
2022/03/07 10:50:52;;;;;;;12.50;7.45;;;;;;;;;;5035328;28;20044;-73
2022/03/07 10:53:20;;;;;;;9.90;5.53;;;;;;;;;;5029029;28;20048;-74
2022/03/07 10:55:51;;;;;;;14.15;5.78;;;;;;;;;;5028797;28;20107;-76
2022/03/07 10:58:21;;;;;;;11.07;6.85;;;;;;;;;;5029214;28;20049;-74
2022/03/07 11:00:50;;;;;;;13.52;7.18;;;;;;;;;;5031908;28;20247;-74
2022/03/07 11:03:20;;;;;;;12.27;7.40;;;;;;;;;;5035433;28;20037;-73
2022/03/07 11:05:51;;;;;;;12.30;5.93;;;;;;;;;;5031828;28;20481;-73
2022/03/07 11:08:22;;;;;;;15.80;7.32;;;;;;;;;;5028750;28;20049;-74
2022/03/07 11:10:52;;;;;;;13.68;7.50;;;;;;;;;;5029836;28;20052;-74
2022/03/07 11:13:25;;;;;;;12.80;7.18;;;;;;;;;;5031479;28;20053;-76
2022/03/07 11:15:55;;;;;;;11.90;7.30;;;;;;;;;;5028953;28;20550;-74
2022/03/07 11:18:26;;;;;;;10.82;7.18;;;;;;;;;;5027974;28;20098;-74
2022/03/07 11:20:55;;;;;;;11.85;6.93;;;;;;;;;;5032431;28;20577;-74
2022/03/07 11:23:23;;;;;;;12.27;6.95;;;;;;;;;;5030903;28;20064;-74
2022/03/07 11:25:51;;;;;;;12.73;7.53;;;;;;;;;;5031022;28;20481;-74
2022/03/07 11:28:21;;;;;;;12.43;6.70;;;;;;;;;;5031863;28;20056;-74
2022/03/07 11:30:50;;;;;;;15.70;7.72;;;;;;;;;;5030716;28;20144;-75
2022/03/07 11:33:20;;;;;;;13.38;6.50;;;;;;;;;;5033826;28;20524;-74
2022/03/07 11:35:51;;;;;;;10.38;5.32;;;;;;;;;;5030644;28;20040;-73
2022/03/07 11:38:20;;;;;;;13.35;7.72;;;;;;;;;;5029016;28;20056;-73
2022/03/07 11:40:55;;;;;;;13.98;7.57;;;;;;;;;;5030486;28;20072;-72
2022/03/07 11:43:25;;;;;;;12.50;7.03;;;;;;;;;;5029161;28;20045;-73
2022/03/07 11:45:53;;;;;;;11.38;6.72;;;;;;;;;;5030587;28;20149;-72
2022/03/07 11:48:21;;;;;;;11.73;6.55;;;;;;;;;;5029513;28;20485;-74
2022/03/07 11:50:50;;;;;;;8.55;4.95;;;;;;;;;;5028930;28;20103;-72
2022/03/07 11:53:19;;;;;;;10.45;6.13;;;;;;;;;;5030005;28;20160;-71
2022/03/07 11:55:47;;;;;;;11.25;6.07;;;;;;;;;;5029964;28;20049;-73
2022/03/07 11:58:26;;;;;;;9.73;6.32;;;;;;;;;;5028930;28;20060;-72
2022/03/07 12:01:02;;;;;;;14.82;7.47;;;;;;;;;;5033220;28;20087;-73
2022/03/07 12:03:32;;;;;;;12.18;6.63;;;;;;;;;;5030555;28;20897;-72
2022/03/07 12:06:03;;;;;;;12.32;6.30;;;;;;;;;;5029181;28;20069;-74
2022/03/07 12:08:31;;;;;;;13.32;6.95;;;;;;;;;;5029919;28;20052;-72
2022/03/07 12:10:59;;;;;;;11.30;6.28;;;;;;;;;;5032007;28;20054;-74
2022/03/07 12:13:29;;;;;;;12.45;7.00;;;;;;;;;;5034390;28;20045;-73
2022/03/07 12:15:57;;;;;;;11.95;6.47;;;;;;;;;;5034116;28;20154;-73
2022/03/07 12:18:27;;;;;;;14.40;7.00;;;;;;;;;;5031958;28;20053;-73
2022/03/07 12:20:56;;;;;;;8.05;5.22;;;;;;;;;;5031335;28;20181;-76
2022/03/07 12:23:25;;;;;;;10.20;6.07;;;;;;;;;;5032605;28;20147;-74
2022/03/07 12:25:58;;;;;;;12.90;7.43;;;;;;;;;;5032270;28;20045;-75
2022/03/07 12:28:32;;;;;;;12.90;6.20;;;;;;;;;;5030477;28;20665;-73
2022/03/07 12:31:02;;;;;;;11.52;7.20;;;;;;;;;;5027307;28;20156;-73
2022/03/07 12:33:31;;;;;;;12.80;5.78;;;;;;;;;;5029964;28;20056;-73
2022/03/07 12:36:20;;;;;;;12.77;6.63;;;;;;;;;;5028864;28;20059;-73
2022/03/07 12:38:50;;;;;;;8.85;5.63;;;;;;;;;;5031982;28;20045;-73
2022/03/07 12:41:20;;;;;;;11.32;5.50;;;;;;;;;;5029910;28;20057;-74
2022/03/07 12:43:51;;;;;;;10.35;6.30;;;;;;;;;;5032382;28;20472;-73
2022/03/07 12:46:20;;;;;;;12.43;6.82;;;;;;;;;;5026414;28;20071;-73
2022/03/07 12:48:49;;;;;;;9.73;5.90;;;;;;;;;;5030121;28;20105;-75
2022/03/07 12:51:18;;;;;;;10.27;6.03;;;;;;;;;;5023036;28;20164;-74
2022/03/07 12:53:47;;;;;;;10.90;5.43;;;;;;;;;;5022700;28;20528;-74
2022/03/07 12:56:18;;;;;;;8.90;5.82;;;;;;;;;;5025032;28;20053;-74
2022/03/07 12:58:47;;;;;;;10.40;6.13;;;;;;;;;;5027428;28;20080;-74
2022/03/07 13:01:15;;;;;;;11.60;6.43;;;;;;;;;;5035341;28;20159;-74
2022/03/07 13:03:43;;;;;;;8.88;5.05;;;;;;;;;;5032587;28;20048;-74
2022/03/07 13:06:10;;;;;;;11.07;5.28;;;;;;;;;;5032391;28;20749;-74
2022/03/07 13:08:45;;;;;;;10.05;5.60;;;;;;;;;;5034930;28;20115;-74
2022/03/07 13:11:13;;;;;;;8.77;5.80;;;;;;;;;;5037050;28;20474;-74
2022/03/07 13:13:42;;;;;;;9.52;6.38;;;;;;;;;;5033505;28;20053;-74
2022/03/07 13:16:10;;;;;;;9.45;5.25;;;;;;;;;;5039148;28;20064;-73
2022/03/07 13:19:02;;;;;;;9.63;5.25;;;;;;;;;;5035943;28;21010;-74
2022/03/07 13:21:32;;;;;;;7.82;4.72;;;;;;;;;;5035748;28;20042;-74
2022/03/07 13:23:59;;;;;;;10.35;5.93;;;;;;;;;;5033864;28;20285;-73
2022/03/07 13:26:27;;;;;;;8.75;5.72;;;;;;;;;;5031690;28;20053;-73
2022/03/07 13:29:03;;;;;;;10.40;6.55;;;;;;;;;;5034240;28;20118;-74
2022/03/07 13:31:40;;;;;;;10.23;6.15;;;;;;;;;;5036403;28;20529;-74
2022/03/07 13:34:08;;;;;;;9.15;5.93;;;;;;;;;;5032219;28;20057;-73
2022/03/07 13:36:40;;;;;;;12.68;5.72;;;;;;;;;;5035579;28;20053;-73
2022/03/07 13:39:17;;;;;;;9.75;5.70;;;;;;;;;;5035550;28;20055;-73
2022/03/07 13:41:50;;;;;;;11.10;6.28;;;;;;;;;;5034272;28;20048;-73
2022/03/07 13:44:19;;;;;;;9.70;5.80;;;;;;;;;;5034304;28;20087;-72
2022/03/07 13:46:58;;;;;;;10.60;7.03;;;;;;;;;;5037149;28;20055;-72
2022/03/07 13:49:28;;;;;;;9.75;5.97;;;;;;;;;;5034432;28;20079;-72
2022/03/07 13:51:57;;;;;;;10.30;6.22;;;;;;;;;;5034120;28;20486;-77
2022/03/07 13:54:25;;;;;;;11.85;6.30;;;;;;;;;;5033313;28;20142;-77
2022/03/07 13:57:05;;;;;;;10.80;6.05;;;;;;;;;;5034856;28;20070;-76
2022/03/07 13:59:34;;;;;;;10.73;6.43;;;;;;;;;;5035261;28;20057;-75
2022/03/07 14:02:12;;;;;;;11.13;6.35;;;;;;;;;;5032581;28;20064;-75
2022/03/07 14:04:54;;;;;;;10.52;6.15;;;;;;;;;;5034649;28;20051;-74
2022/03/07 14:07:23;;;;;;;12.20;6.38;;;;;;;;;;5029957;28;20327;-75
2022/03/07 14:10:01;;;;;;;9.50;5.85;;;;;;;;;;5034505;28;20076;-75
2022/03/07 14:12:30;;;;;;;9.73;6.57;;;;;;;;;;5032569;28;20135;-76
2022/03/07 14:15:23;;;;;;;10.48;6.28;;;;;;;;;;5032994;28;20172;-76
2022/03/07 14:17:55;;;;;;;10.43;5.43;;;;;;;;;;5035256;28;20045;-75
2022/03/07 14:20:23;;;;;;;12.05;5.72;;;;;;;;;;5034444;28;20075;-75
2022/03/07 14:22:51;;;;;;;10.50;6.10;;;;;;;;;;5033541;28;20060;-74
2022/03/07 14:25:19;;;;;;;11.55;6.18;;;;;;;;;;5035980;28;20133;-75
2022/03/07 14:27:47;;;;;;;12.63;5.97;;;;;;;;;;5033585;28;20045;-74
2022/03/07 14:30:15;;;;;;;10.60;5.65;;;;;;;;;;5033920;28;20142;-75
2022/03/07 14:32:44;;;;;;;12.23;6.68;;;;;;;;;;5033749;28;20091;-75
2022/03/07 14:35:12;;;;;;;10.88;6.18;;;;;;;;;;5035069;28;20089;-75
2022/03/07 14:37:41;;;;;;;10.65;5.78;;;;;;;;;;5035850;28;20500;-75
2022/03/07 14:40:09;;;;;;;11.18;6.65;;;;;;;;;;5031640;28;20072;-76
2022/03/07 14:42:37;;;;;;;13.55;6.30;;;;;;;;;;5034493;28;20582;-74